Weather at Angelina County Airport

Public forecast

Using degrees Fahrenheit for public forecast. Weather courtesy of forecast.io.

Current aviation weather report (METAR) for Angelina County Airport

Retrieved 2020/09/19 06:53 UTC (49 minutes ago):

KLFK 190653Z AUTO 03006KT 10SM CLR 22/18 A3004 RMK AO2 SLP168 T02170178

Aviation forecast (TAF) for Angelina County Airport

Retrieved 2020/09/19 06:36 UTC (1 hour ago):

TAF KLFK 190532Z 1906/2006 03010KT P6SM SCT250 FM191500 05010KT P6SM SKC FM191800 04012G18KT P6SM FEW250 FM200300 04007KT P6SM SCT250